sensor_id;sensor_type;location;lat;lon;timestamp;temperature;humidity
30371;DHT22;17164;48.590;11.410;2023-05-20T00:01:31;12.80;99.90
30371;DHT22;17164;48.590;11.410;2023-05-20T00:03:57;12.80;99.90
30371;DHT22;17164;48.590;11.410;2023-05-20T00:06:22;12.80;99.90
30371;DHT22;17164;48.590;11.410;2023-05-20T00:08:48;12.80;99.90
30371;DHT22;17164;48.590;11.410;2023-05-20T00:11:13;12.70;99.90
30371;DHT22;17164;48.590;11.410;2023-05-20T00:13:39;12.70;99.90
30371;DHT22;17164;48.590;11.410;2023-05-20T00:16:05;12.70;99.90
30371;DHT22;17164;48.590;11.410;2023-05-20T00:18:31;12.60;99.90
30371;DHT22;17164;48.590;11.410;2023-05-20T00:20:59;12.60;99.90
30371;DHT22;17164;48.590;11.410;2023-05-20T00:23:25;12.60;99.90
30371;DHT22;17164;48.590;11.410;2023-05-20T00:25:50;12.50;99.90
30371;DHT22;17164;48.590;11.410;2023-05-20T00:28:16;12.50;99.90
30371;DHT22;17164;48.590;11.410;2023-05-20T00:30:41;12.50;99.90
30371;DHT22;17164;48.590;11.410;2023-05-20T00:33:07;12.50;99.90
30371;DHT22;17164;48.590;11.410;2023-05-20T00:35:33;12.50;99.90
30371;DHT22;17164;48.590;11.410;2023-05-20T00:37:59;12.50;99.90
30371;DHT22;17164;48.590;11.410;2023-05-20T00:40:24;12.40;99.90
30371;DHT22;17164;48.590;11.410;2023-05-20T00:42:50;12.40;99.90
30371;DHT22;17164;48.590;11.410;2023-05-20T00:45:16;12.40;99.90
30371;DHT22;17164;48.590;11.410;2023-05-20T00:47:42;12.40;99.90
30371;DHT22;17164;48.590;11.410;2023-05-20T00:50:09;12.40;99.90
30371;DHT22;17164;48.590;11.410;2023-05-20T00:52:35;12.40;99.90
30371;DHT22;17164;48.590;11.410;2023-05-20T00:55:02;12.30;99.90
30371;DHT22;17164;48.590;11.410;2023-05-20T00:57:28;12.30;99.90
30371;DHT22;17164;48.590;11.410;2023-05-20T00:59:54;12.30;99.90
30371;DHT22;17164;48.590;11.410;2023-05-20T01:02:20;12.30;99.90
30371;DHT22;17164;48.590;11.410;2023-05-20T01:04:46;12.30;99.90
30371;DHT22;17164;48.590;11.410;2023-05-20T01:07:16;12.30;99.90
30371;DHT22;17164;48.590;11.410;2023-05-20T01:09:42;12.20;99.90
30371;DHT22;17164;48.590;11.410;2023-05-20T01:14:38;12.20;99.90
30371;DHT22;17164;48.590;11.410;2023-05-20T01:17:07;12.20;99.90
30371;DHT22;17164;48.590;11.410;2023-05-20T01:19:43;12.20;99.90
30371;DHT22;17164;48.590;11.410;2023-05-20T01:22:10;12.10;99.90
30371;DHT22;17164;48.590;11.410;2023-05-20T01:24:46;12.10;99.90
30371;DHT22;17164;48.590;11.410;2023-05-20T01:27:14;12.10;99.90
30371;DHT22;17164;48.590;11.410;2023-05-20T01:29:41;12.10;99.90
30371;DHT22;17164;48.590;11.410;2023-05-20T01:32:11;12.00;99.90
30371;DHT22;17164;48.590;11.410;2023-05-20T01:34:40;12.00;99.90
30371;DHT22;17164;48.590;11.410;2023-05-20T01:37:06;12.00;99.90
30371;DHT22;17164;48.590;11.410;2023-05-20T01:39:35;11.90;99.90
30371;DHT22;17164;48.590;11.410;2023-05-20T01:42:03;11.90;99.90
30371;DHT22;17164;48.590;11.410;2023-05-20T01:44:29;11.90;99.90
30371;DHT22;17164;48.590;11.410;2023-05-20T01:46:55;11.90;99.90
30371;DHT22;17164;48.590;11.410;2023-05-20T01:49:20;11.80;99.90
30371;DHT22;17164;48.590;11.410;2023-05-20T01:51:46;11.80;99.90
30371;DHT22;17164;48.590;11.410;2023-05-20T01:54:12;11.80;99.90
30371;DHT22;17164;48.590;11.410;2023-05-20T01:56:37;11.80;99.90
30371;DHT22;17164;48.590;11.410;2023-05-20T01:59:03;11.70;99.90
30371;DHT22;17164;48.590;11.410;2023-05-20T02:01:28;11.70;99.90
30371;DHT22;17164;48.590;11.410;2023-05-20T02:03:54;11.70;99.90
30371;DHT22;17164;48.590;11.410;2023-05-20T02:06:20;11.70;99.90
30371;DHT22;17164;48.590;11.410;2023-05-20T02:08:45;11.60;99.90
30371;DHT22;17164;48.590;11.410;2023-05-20T02:11:11;11.60;99.90
30371;DHT22;17164;48.590;11.410;2023-05-20T02:13:37;11.60;99.90
30371;DHT22;17164;48.590;11.410;2023-05-20T02:16:03;11.50;99.90
30371;DHT22;17164;48.590;11.410;2023-05-20T02:18:28;11.50;99.90
30371;DHT22;17164;48.590;11.410;2023-05-20T02:20:54;11.50;99.90
30371;DHT22;17164;48.590;11.410;2023-05-20T02:23:20;11.40;99.90
30371;DHT22;17164;48.590;11.410;2023-05-20T02:25:45;11.40;99.90
30371;DHT22;17164;48.590;11.410;2023-05-20T02:28:11;11.30;99.90
30371;DHT22;17164;48.590;11.410;2023-05-20T02:30:37;11.30;99.90
30371;DHT22;17164;48.590;11.410;2023-05-20T02:33:03;11.30;99.90
30371;DHT22;17164;48.590;11.410;2023-05-20T02:35:28;11.30;99.90
30371;DHT22;17164;48.590;11.410;2023-05-20T02:37:54;11.30;99.90
30371;DHT22;17164;48.590;11.410;2023-05-20T02:40:20;11.20;99.90
30371;DHT22;17164;48.590;11.410;2023-05-20T02:42:46;11.20;99.90
30371;DHT22;17164;48.590;11.410;2023-05-20T02:45:11;11.20;99.90
30371;DHT22;17164;48.590;11.410;2023-05-20T02:47:37;11.20;99.90
30371;DHT22;17164;48.590;11.410;2023-05-20T02:50:03;11.20;99.90
30371;DHT22;17164;48.590;11.410;2023-05-20T02:52:28;11.10;99.90
30371;DHT22;17164;48.590;11.410;2023-05-20T02:54:54;11.10;99.90
30371;DHT22;17164;48.590;11.410;2023-05-20T02:57:20;11.10;99.90
30371;DHT22;17164;48.590;11.410;2023-05-20T02:59:46;11.10;99.90
30371;DHT22;17164;48.590;11.410;2023-05-20T03:02:12;11.10;99.90
30371;DHT22;17164;48.590;11.410;2023-05-20T03:04:37;11.10;99.90
30371;DHT22;17164;48.590;11.410;2023-05-20T03:07:06;11.10;99.90
30371;DHT22;17164;48.590;11.410;2023-05-20T03:09:34;11.10;99.90
30371;DHT22;17164;48.590;11.410;2023-05-20T03:12:00;11.10;99.90
30371;DHT22;17164;48.590;11.410;2023-05-20T03:14:25;11.10;99.90
30371;DHT22;17164;48.590;11.410;2023-05-20T03:16:52;11.10;99.90
30371;DHT22;17164;48.590;11.410;2023-05-20T03:19:20;11.10;99.90
30371;DHT22;17164;48.590;11.410;2023-05-20T03:21:46;11.10;99.90
30371;DHT22;17164;48.590;11.410;2023-05-20T03:24:11;11.10;99.90
30371;DHT22;17164;48.590;11.410;2023-05-20T03:26:37;11.10;99.90
30371;DHT22;17164;48.590;11.410;2023-05-20T03:29:08;11.10;99.90
30371;DHT22;17164;48.590;11.410;2023-05-20T03:31:33;11.10;99.90
30371;DHT22;17164;48.590;11.410;2023-05-20T03:33:59;11.10;99.90
30371;DHT22;17164;48.590;11.410;2023-05-20T03:36:25;11.10;99.90
30371;DHT22;17164;48.590;11.410;2023-05-20T03:38:51;11.10;99.90
30371;DHT22;17164;48.590;11.410;2023-05-20T03:41:16;11.10;99.90
30371;DHT22;17164;48.590;11.410;2023-05-20T03:43:42;11.20;99.90
30371;DHT22;17164;48.590;11.410;2023-05-20T03:46:07;11.20;99.90
30371;DHT22;17164;48.590;11.410;2023-05-20T03:48:33;11.20;99.90
30371;DHT22;17164;48.590;11.410;2023-05-20T03:50:59;11.20;99.90
30371;DHT22;17164;48.590;11.410;2023-05-20T03:53:26;11.20;99.90
30371;DHT22;17164;48.590;11.410;2023-05-20T03:55:52;11.20;99.90
30371;DHT22;17164;48.590;11.410;2023-05-20T03:58:17;11.20;99.90
30371;DHT22;17164;48.590;11.410;2023-05-20T04:00:47;11.20;99.90
30371;DHT22;17164;48.590;11.410;2023-05-20T04:03:13;11.30;99.90
30371;DHT22;17164;48.590;11.410;2023-05-20T04:05:38;11.30;99.90
30371;DHT22;17164;48.590;11.410;2023-05-20T04:08:04;11.30;99.90
30371;DHT22;17164;48.590;11.410;2023-05-20T04:10:30;11.40;99.90
30371;DHT22;17164;48.590;11.410;2023-05-20T04:12:59;11.30;99.90
30371;DHT22;17164;48.590;11.410;2023-05-20T04:15:24;11.40;99.90
30371;DHT22;17164;48.590;11.410;2023-05-20T04:17:50;11.40;99.90
30371;DHT22;17164;48.590;11.410;2023-05-20T04:20:17;11.40;99.90
30371;DHT22;17164;48.590;11.410;2023-05-20T04:22:43;11.40;99.90
30371;DHT22;17164;48.590;11.410;2023-05-20T04:25:09;11.40;99.90
30371;DHT22;17164;48.590;11.410;2023-05-20T04:27:35;11.40;99.90
30371;DHT22;17164;48.590;11.410;2023-05-20T04:30:03;11.40;99.90
30371;DHT22;17164;48.590;11.410;2023-05-20T04:32:28;11.40;99.90
30371;DHT22;17164;48.590;11.410;2023-05-20T04:34:54;11.40;99.90
30371;DHT22;17164;48.590;11.410;2023-05-20T04:37:20;11.40;99.90
30371;DHT22;17164;48.590;11.410;2023-05-20T04:39:47;11.40;99.90
30371;DHT22;17164;48.590;11.410;2023-05-20T04:42:14;11.40;99.90
30371;DHT22;17164;48.590;11.410;2023-05-20T04:44:43;11.40;99.90
30371;DHT22;17164;48.590;11.410;2023-05-20T04:47:11;11.40;99.90
30371;DHT22;17164;48.590;11.410;2023-05-20T04:49:37;11.30;99.90
30371;DHT22;17164;48.590;11.410;2023-05-20T04:52:03;11.30;99.90
30371;DHT22;17164;48.590;11.410;2023-05-20T04:54:29;11.30;99.90
30371;DHT22;17164;48.590;11.410;2023-05-20T04:56:55;11.30;99.90
30371;DHT22;17164;48.590;11.410;2023-05-20T04:59:21;11.30;99.90
30371;DHT22;17164;48.590;11.410;2023-05-20T05:01:47;11.30;99.90
30371;DHT22;17164;48.590;11.410;2023-05-20T05:04:12;11.40;99.90
30371;DHT22;17164;48.590;11.410;2023-05-20T05:06:38;11.40;99.90
30371;DHT22;17164;48.590;11.410;2023-05-20T05:09:04;11.40;99.90
30371;DHT22;17164;48.590;11.410;2023-05-20T05:11:29;11.50;99.90
30371;DHT22;17164;48.590;11.410;2023-05-20T05:13:55;11.50;99.90
30371;DHT22;17164;48.590;11.410;2023-05-20T05:16:21;11.60;99.90
30371;DHT22;17164;48.590;11.410;2023-05-20T05:18:47;11.60;99.90
30371;DHT22;17164;48.590;11.410;2023-05-20T05:21:12;11.70;99.90
30371;DHT22;17164;48.590;11.410;2023-05-20T05:23:38;11.80;99.90
30371;DHT22;17164;48.590;11.410;2023-05-20T05:26:04;11.80;99.90
30371;DHT22;17164;48.590;11.410;2023-05-20T05:28:29;11.90;99.90
30371;DHT22;17164;48.590;11.410;2023-05-20T05:30:55;12.00;99.90
30371;DHT22;17164;48.590;11.410;2023-05-20T05:33:21;12.10;99.90
30371;DHT22;17164;48.590;11.410;2023-05-20T05:35:47;12.20;99.90
30371;DHT22;17164;48.590;11.410;2023-05-20T05:38:13;12.20;99.90
30371;DHT22;17164;48.590;11.410;2023-05-20T05:40:38;12.30;99.90
30371;DHT22;17164;48.590;11.410;2023-05-20T05:43:04;12.40;99.90
30371;DHT22;17164;48.590;11.410;2023-05-20T05:45:29;12.50;99.90
30371;DHT22;17164;48.590;11.410;2023-05-20T05:47:55;12.60;99.90
30371;DHT22;17164;48.590;11.410;2023-05-20T05:50:21;12.70;99.90
30371;DHT22;17164;48.590;11.410;2023-05-20T05:52:46;12.80;99.90
30371;DHT22;17164;48.590;11.410;2023-05-20T05:55:12;12.90;99.90
30371;DHT22;17164;48.590;11.410;2023-05-20T05:57:37;13.00;99.90
30371;DHT22;17164;48.590;11.410;2023-05-20T06:00:04;13.10;99.90
30371;DHT22;17164;48.590;11.410;2023-05-20T06:02:29;13.20;99.90
30371;DHT22;17164;48.590;11.410;2023-05-20T06:05:03;13.30;99.90
30371;DHT22;17164;48.590;11.410;2023-05-20T06:07:28;13.40;99.90
30371;DHT22;17164;48.590;11.410;2023-05-20T06:09:54;13.50;99.90
30371;DHT22;17164;48.590;11.410;2023-05-20T06:12:20;13.60;99.90
30371;DHT22;17164;48.590;11.410;2023-05-20T06:14:46;13.70;99.90
30371;DHT22;17164;48.590;11.410;2023-05-20T06:17:12;13.80;99.90
30371;DHT22;17164;48.590;11.410;2023-05-20T06:19:37;13.90;99.90
30371;DHT22;17164;48.590;11.410;2023-05-20T06:22:03;14.00;99.90
30371;DHT22;17164;48.590;11.410;2023-05-20T06:24:29;14.10;99.90
30371;DHT22;17164;48.590;11.410;2023-05-20T06:26:54;14.20;99.90
30371;DHT22;17164;48.590;11.410;2023-05-20T06:29:20;14.30;99.90
30371;DHT22;17164;48.590;11.410;2023-05-20T06:31:45;14.40;99.90
30371;DHT22;17164;48.590;11.410;2023-05-20T06:34:11;14.50;99.90
30371;DHT22;17164;48.590;11.410;2023-05-20T06:36:37;14.60;99.90
30371;DHT22;17164;48.590;11.410;2023-05-20T06:39:02;14.70;99.90
30371;DHT22;17164;48.590;11.410;2023-05-20T06:41:30;14.80;99.90
30371;DHT22;17164;48.590;11.410;2023-05-20T06:43:56;14.90;99.90
30371;DHT22;17164;48.590;11.410;2023-05-20T06:46:22;15.00;99.90
30371;DHT22;17164;48.590;11.410;2023-05-20T06:48:47;15.10;99.90
30371;DHT22;17164;48.590;11.410;2023-05-20T06:51:13;15.10;99.90
30371;DHT22;17164;48.590;11.410;2023-05-20T06:53:38;15.30;99.90
30371;DHT22;17164;48.590;11.410;2023-05-20T06:56:04;15.40;99.90
30371;DHT22;17164;48.590;11.410;2023-05-20T06:58:30;15.50;99.90
30371;DHT22;17164;48.590;11.410;2023-05-20T07:00:55;15.60;99.90
30371;DHT22;17164;48.590;11.410;2023-05-20T07:03:22;15.70;99.90
30371;DHT22;17164;48.590;11.410;2023-05-20T07:05:49;15.80;99.90
30371;DHT22;17164;48.590;11.410;2023-05-20T07:08:14;16.00;99.90
30371;DHT22;17164;48.590;11.410;2023-05-20T07:10:40;16.10;99.90
30371;DHT22;17164;48.590;11.410;2023-05-20T07:13:05;16.20;99.90
30371;DHT22;17164;48.590;11.410;2023-05-20T07:15:31;16.30;99.90
30371;DHT22;17164;48.590;11.410;2023-05-20T07:17:57;16.40;99.90
30371;DHT22;17164;48.590;11.410;2023-05-20T07:20:23;16.50;99.90
30371;DHT22;17164;48.590;11.410;2023-05-20T07:22:49;16.50;99.90
30371;DHT22;17164;48.590;11.410;2023-05-20T07:25:15;16.60;99.90
30371;DHT22;17164;48.590;11.410;2023-05-20T07:27:41;16.80;99.90
30371;DHT22;17164;48.590;11.410;2023-05-20T07:30:07;16.90;99.90
30371;DHT22;17164;48.590;11.410;2023-05-20T07:32:33;17.00;99.90
30371;DHT22;17164;48.590;11.410;2023-05-20T07:34:58;17.10;99.90
30371;DHT22;17164;48.590;11.410;2023-05-20T07:37:24;17.30;99.90
30371;DHT22;17164;48.590;11.410;2023-05-20T07:39:50;17.40;99.90
30371;DHT22;17164;48.590;11.410;2023-05-20T07:42:15;17.50;99.90
30371;DHT22;17164;48.590;11.410;2023-05-20T07:44:41;17.60;99.90
30371;DHT22;17164;48.590;11.410;2023-05-20T07:47:06;17.80;99.90
30371;DHT22;17164;48.590;11.410;2023-05-20T07:49:32;18.00;99.90
30371;DHT22;17164;48.590;11.410;2023-05-20T07:51:58;18.20;99.90
30371;DHT22;17164;48.590;11.410;2023-05-20T07:54:23;18.30;99.90
30371;DHT22;17164;48.590;11.410;2023-05-20T07:56:49;18.40;99.90
30371;DHT22;17164;48.590;11.410;2023-05-20T07:59:15;18.60;99.90
30371;DHT22;17164;48.590;11.410;2023-05-20T08:01:41;18.80;99.90
30371;DHT22;17164;48.590;11.410;2023-05-20T08:04:07;19.10;99.90
30371;DHT22;17164;48.590;11.410;2023-05-20T08:06:33;19.20;99.90
30371;DHT22;17164;48.590;11.410;2023-05-20T08:09:00;19.30;99.90
30371;DHT22;17164;48.590;11.410;2023-05-20T08:11:26;19.30;99.90
30371;DHT22;17164;48.590;11.410;2023-05-20T08:13:51;19.20;99.90
30371;DHT22;17164;48.590;11.410;2023-05-20T08:16:17;19.30;99.90
30371;DHT22;17164;48.590;11.410;2023-05-20T08:18:43;19.40;99.90
30371;DHT22;17164;48.590;11.410;2023-05-20T08:21:08;19.50;99.90
30371;DHT22;17164;48.590;11.410;2023-05-20T08:23:35;19.60;99.90
30371;DHT22;17164;48.590;11.410;2023-05-20T08:26:00;19.70;99.90
30371;DHT22;17164;48.590;11.410;2023-05-20T08:28:28;19.90;99.90
30371;DHT22;17164;48.590;11.410;2023-05-20T08:30:54;20.00;99.90
30371;DHT22;17164;48.590;11.410;2023-05-20T08:33:19;20.20;99.90
30371;DHT22;17164;48.590;11.410;2023-05-20T08:35:49;20.30;99.90
30371;DHT22;17164;48.590;11.410;2023-05-20T08:38:14;20.40;99.90
30371;DHT22;17164;48.590;11.410;2023-05-20T08:40:40;20.50;99.90
30371;DHT22;17164;48.590;11.410;2023-05-20T08:43:05;20.60;99.90
30371;DHT22;17164;48.590;11.410;2023-05-20T08:45:33;20.70;99.90
30371;DHT22;17164;48.590;11.410;2023-05-20T08:48:00;20.80;99.90
30371;DHT22;17164;48.590;11.410;2023-05-20T08:50:26;20.90;99.90
30371;DHT22;17164;48.590;11.410;2023-05-20T08:52:52;21.00;99.90
30371;DHT22;17164;48.590;11.410;2023-05-20T08:55:24;21.10;99.90
30371;DHT22;17164;48.590;11.410;2023-05-20T08:57:52;21.20;99.90
30371;DHT22;17164;48.590;11.410;2023-05-20T09:00:19;21.20;99.90
30371;DHT22;17164;48.590;11.410;2023-05-20T09:02:47;21.30;99.90
30371;DHT22;17164;48.590;11.410;2023-05-20T09:05:13;21.30;99.90
30371;DHT22;17164;48.590;11.410;2023-05-20T09:07:39;21.30;99.90
30371;DHT22;17164;48.590;11.410;2023-05-20T09:10:08;21.20;99.90
30371;DHT22;17164;48.590;11.410;2023-05-20T09:12:34;21.20;99.90
30371;DHT22;17164;48.590;11.410;2023-05-20T09:15:00;21.10;99.90
30371;DHT22;17164;48.590;11.410;2023-05-20T09:17:25;21.10;99.90
30371;DHT22;17164;48.590;11.410;2023-05-20T09:19:52;21.20;99.90
30371;DHT22;17164;48.590;11.410;2023-05-20T09:22:26;21.20;99.90
30371;DHT22;17164;48.590;11.410;2023-05-20T09:24:52;21.30;99.90
30371;DHT22;17164;48.590;11.410;2023-05-20T09:27:18;21.30;99.90
30371;DHT22;17164;48.590;11.410;2023-05-20T09:29:46;21.40;99.90
30371;DHT22;17164;48.590;11.410;2023-05-20T09:32:13;21.50;99.90
30371;DHT22;17164;48.590;11.410;2023-05-20T09:34:39;21.70;99.90
30371;DHT22;17164;48.590;11.410;2023-05-20T09:37:10;22.00;99.90
30371;DHT22;17164;48.590;11.410;2023-05-20T09:39:45;22.20;99.90
30371;DHT22;17164;48.590;11.410;2023-05-20T09:42:29;22.50;99.90
30371;DHT22;17164;48.590;11.410;2023-05-20T09:44:57;22.70;99.90
30371;DHT22;17164;48.590;11.410;2023-05-20T09:47:23;22.80;99.90
30371;DHT22;17164;48.590;11.410;2023-05-20T09:49:51;22.80;99.90
30371;DHT22;17164;48.590;11.410;2023-05-20T09:52:17;22.80;99.90
30371;DHT22;17164;48.590;11.410;2023-05-20T09:54:44;23.00;98.80
30371;DHT22;17164;48.590;11.410;2023-05-20T09:57:11;23.20;98.80
30371;DHT22;17164;48.590;11.410;2023-05-20T09:59:37;23.20;98.20
30371;DHT22;17164;48.590;11.410;2023-05-20T10:02:05;23.20;98.70
30371;DHT22;17164;48.590;11.410;2023-05-20T10:04:33;23.20;98.00
30371;DHT22;17164;48.590;11.410;2023-05-20T10:10:19;23.10;97.80
30371;DHT22;17164;48.590;11.410;2023-05-20T10:21:22;23.10;95.80
30371;DHT22;17164;48.590;11.410;2023-05-20T10:23:51;23.00;95.20
30371;DHT22;17164;48.590;11.410;2023-05-20T10:26:17;23.10;95.00
30371;DHT22;17164;48.590;11.410;2023-05-20T10:28:44;23.20;95.00
30371;DHT22;17164;48.590;11.410;2023-05-20T10:31:21;23.30;94.90
30371;DHT22;17164;48.590;11.410;2023-05-20T10:33:47;23.50;95.80
30371;DHT22;17164;48.590;11.410;2023-05-20T10:36:26;23.80;96.30
30371;DHT22;17164;48.590;11.410;2023-05-20T10:38:57;24.20;95.00
30371;DHT22;17164;48.590;11.410;2023-05-20T10:41:27;24.60;93.50
30371;DHT22;17164;48.590;11.410;2023-05-20T10:44:05;24.80;90.80
30371;DHT22;17164;48.590;11.410;2023-05-20T10:46:33;25.10;87.60
30371;DHT22;17164;48.590;11.410;2023-05-20T10:49:01;25.20;86.00
30371;DHT22;17164;48.590;11.410;2023-05-20T10:51:28;25.20;85.90
30371;DHT22;17164;48.590;11.410;2023-05-20T10:53:56;25.00;84.40
30371;DHT22;17164;48.590;11.410;2023-05-20T10:56:25;24.90;89.40
30371;DHT22;17164;48.590;11.410;2023-05-20T10:58:52;24.90;85.00
30371;DHT22;17164;48.590;11.410;2023-05-20T11:01:22;24.80;83.90
30371;DHT22;17164;48.590;11.410;2023-05-20T11:03:48;24.60;85.70
30371;DHT22;17164;48.590;11.410;2023-05-20T11:06:18;24.50;84.00
30371;DHT22;17164;48.590;11.410;2023-05-20T11:08:44;24.40;85.00
30371;DHT22;17164;48.590;11.410;2023-05-20T11:11:11;24.20;84.70
30371;DHT22;17164;48.590;11.410;2023-05-20T11:13:37;24.10;82.80
30371;DHT22;17164;48.590;11.410;2023-05-20T11:16:03;23.80;82.50
30371;DHT22;17164;48.590;11.410;2023-05-20T11:18:29;23.60;84.10
30371;DHT22;17164;48.590;11.410;2023-05-20T11:20:57;23.40;87.50
30371;DHT22;17164;48.590;11.410;2023-05-20T11:23:22;23.30;86.50
30371;DHT22;17164;48.590;11.410;2023-05-20T11:25:51;23.20;89.60
30371;DHT22;17164;48.590;11.410;2023-05-20T11:28:22;23.10;90.60
30371;DHT22;17164;48.590;11.410;2023-05-20T11:30:49;23.10;90.20
30371;DHT22;17164;48.590;11.410;2023-05-20T11:33:16;23.10;90.40
30371;DHT22;17164;48.590;11.410;2023-05-20T11:35:51;23.20;91.40
30371;DHT22;17164;48.590;11.410;2023-05-20T11:38:18;23.30;90.80
30371;DHT22;17164;48.590;11.410;2023-05-20T11:40:50;23.30;90.30
30371;DHT22;17164;48.590;11.410;2023-05-20T11:43:16;23.30;88.20
30371;DHT22;17164;48.590;11.410;2023-05-20T11:45:44;23.40;88.50
30371;DHT22;17164;48.590;11.410;2023-05-20T11:48:11;23.40;86.30
30371;DHT22;17164;48.590;11.410;2023-05-20T11:50:38;23.50;90.30
30371;DHT22;17164;48.590;11.410;2023-05-20T11:53:07;23.70;91.00
30371;DHT22;17164;48.590;11.410;2023-05-20T11:55:33;24.00;89.20
30371;DHT22;17164;48.590;11.410;2023-05-20T11:58:00;24.30;90.20
30371;DHT22;17164;48.590;11.410;2023-05-20T12:00:26;24.50;89.20
30371;DHT22;17164;48.590;11.410;2023-05-20T12:02:52;24.70;89.50
30371;DHT22;17164;48.590;11.410;2023-05-20T12:05:18;24.70;87.20
30371;DHT22;17164;48.590;11.410;2023-05-20T12:07:43;24.70;84.70
30371;DHT22;17164;48.590;11.410;2023-05-20T12:10:09;24.70;86.00
30371;DHT22;17164;48.590;11.410;2023-05-20T12:12:35;24.60;85.40
30371;DHT22;17164;48.590;11.410;2023-05-20T12:15:03;24.40;83.70
30371;DHT22;17164;48.590;11.410;2023-05-20T12:17:30;24.20;81.90
30371;DHT22;17164;48.590;11.410;2023-05-20T12:19:56;24.20;81.50
30371;DHT22;17164;48.590;11.410;2023-05-20T12:22:21;24.10;83.30
30371;DHT22;17164;48.590;11.410;2023-05-20T12:24:49;24.30;82.10
30371;DHT22;17164;48.590;11.410;2023-05-20T12:27:15;24.50;79.70
30371;DHT22;17164;48.590;11.410;2023-05-20T12:29:40;24.80;78.90
30371;DHT22;17164;48.590;11.410;2023-05-20T12:32:06;25.00;77.80
30371;DHT22;17164;48.590;11.410;2023-05-20T12:34:32;25.30;78.90
30371;DHT22;17164;48.590;11.410;2023-05-20T12:36:57;25.40;75.60
30371;DHT22;17164;48.590;11.410;2023-05-20T12:39:23;25.50;75.30
30371;DHT22;17164;48.590;11.410;2023-05-20T12:41:48;25.40;74.60
30371;DHT22;17164;48.590;11.410;2023-05-20T12:44:14;25.40;78.10
30371;DHT22;17164;48.590;11.410;2023-05-20T12:46:40;25.50;76.50
30371;DHT22;17164;48.590;11.410;2023-05-20T12:49:06;25.50;78.30
30371;DHT22;17164;48.590;11.410;2023-05-20T12:51:32;25.60;80.30
30371;DHT22;17164;48.590;11.410;2023-05-20T12:53:57;25.80;79.70
30371;DHT22;17164;48.590;11.410;2023-05-20T12:56:23;25.90;79.00
30371;DHT22;17164;48.590;11.410;2023-05-20T12:58:50;26.00;77.90
30371;DHT22;17164;48.590;11.410;2023-05-20T13:01:16;26.10;75.90
30371;DHT22;17164;48.590;11.410;2023-05-20T13:03:41;26.10;77.60
30371;DHT22;17164;48.590;11.410;2023-05-20T13:06:07;26.10;80.60
30371;DHT22;17164;48.590;11.410;2023-05-20T13:08:32;26.20;75.20
30371;DHT22;17164;48.590;11.410;2023-05-20T13:10:58;26.10;70.80
30371;DHT22;17164;48.590;11.410;2023-05-20T13:13:24;26.10;73.60
30371;DHT22;17164;48.590;11.410;2023-05-20T13:15:50;26.10;74.00
30371;DHT22;17164;48.590;11.410;2023-05-20T13:18:16;26.10;75.10
30371;DHT22;17164;48.590;11.410;2023-05-20T13:20:44;26.20;76.50
30371;DHT22;17164;48.590;11.410;2023-05-20T13:23:10;26.10;73.00
30371;DHT22;17164;48.590;11.410;2023-05-20T13:25:36;26.00;75.30
30371;DHT22;17164;48.590;11.410;2023-05-20T13:28:03;25.90;73.40
30371;DHT22;17164;48.590;11.410;2023-05-20T13:30:29;25.90;74.60
30371;DHT22;17164;48.590;11.410;2023-05-20T13:32:55;25.80;74.70
30371;DHT22;17164;48.590;11.410;2023-05-20T13:35:20;25.80;73.40
30371;DHT22;17164;48.590;11.410;2023-05-20T13:37:46;25.90;73.90
30371;DHT22;17164;48.590;11.410;2023-05-20T13:40:12;25.90;73.50
30371;DHT22;17164;48.590;11.410;2023-05-20T13:42:38;25.90;72.00
30371;DHT22;17164;48.590;11.410;2023-05-20T13:45:03;25.90;74.30
30371;DHT22;17164;48.590;11.410;2023-05-20T13:47:29;25.90;71.70
30371;DHT22;17164;48.590;11.410;2023-05-20T13:49:55;25.80;69.60
30371;DHT22;17164;48.590;11.410;2023-05-20T13:52:20;25.80;67.20
30371;DHT22;17164;48.590;11.410;2023-05-20T13:54:46;25.90;69.00
30371;DHT22;17164;48.590;11.410;2023-05-20T13:57:13;25.90;69.10
30371;DHT22;17164;48.590;11.410;2023-05-20T13:59:39;26.00;67.30
30371;DHT22;17164;48.590;11.410;2023-05-20T14:02:05;26.10;70.60
30371;DHT22;17164;48.590;11.410;2023-05-20T14:04:31;26.20;70.40
30371;DHT22;17164;48.590;11.410;2023-05-20T14:07:03;26.30;69.40
30371;DHT22;17164;48.590;11.410;2023-05-20T14:09:28;26.40;70.10
30371;DHT22;17164;48.590;11.410;2023-05-20T14:11:54;26.50;71.00
30371;DHT22;17164;48.590;11.410;2023-05-20T14:14:19;26.60;71.40
30371;DHT22;17164;48.590;11.410;2023-05-20T14:16:45;26.70;69.00
30371;DHT22;17164;48.590;11.410;2023-05-20T14:19:11;26.70;65.70
30371;DHT22;17164;48.590;11.410;2023-05-20T14:21:37;26.80;64.90
30371;DHT22;17164;48.590;11.410;2023-05-20T14:24:02;26.90;62.50
30371;DHT22;17164;48.590;11.410;2023-05-20T14:26:28;26.90;61.90
30371;DHT22;17164;48.590;11.410;2023-05-20T14:28:53;26.90;66.30
30371;DHT22;17164;48.590;11.410;2023-05-20T14:31:19;26.90;65.10
30371;DHT22;17164;48.590;11.410;2023-05-20T14:33:44;26.90;64.80
30371;DHT22;17164;48.590;11.410;2023-05-20T14:36:10;26.80;64.50
30371;DHT22;17164;48.590;11.410;2023-05-20T14:38:36;26.80;64.40
30371;DHT22;17164;48.590;11.410;2023-05-20T14:41:01;26.80;62.70
30371;DHT22;17164;48.590;11.410;2023-05-20T14:43:27;26.90;62.70
30371;DHT22;17164;48.590;11.410;2023-05-20T14:45:53;27.10;63.10
30371;DHT22;17164;48.590;11.410;2023-05-20T14:48:18;27.10;62.50
30371;DHT22;17164;48.590;11.410;2023-05-20T14:50:44;27.10;61.60
30371;DHT22;17164;48.590;11.410;2023-05-20T14:53:09;27.10;59.90
30371;DHT22;17164;48.590;11.410;2023-05-20T14:55:35;27.00;60.00
30371;DHT22;17164;48.590;11.410;2023-05-20T14:58:01;26.90;61.30
30371;DHT22;17164;48.590;11.410;2023-05-20T15:00:26;26.70;62.10
30371;DHT22;17164;48.590;11.410;2023-05-20T15:02:52;26.50;62.00
30371;DHT22;17164;48.590;11.410;2023-05-20T15:05:17;26.40;63.10
30371;DHT22;17164;48.590;11.410;2023-05-20T15:07:43;26.20;63.40
30371;DHT22;17164;48.590;11.410;2023-05-20T15:10:09;26.10;63.30
30371;DHT22;17164;48.590;11.410;2023-05-20T15:12:34;26.00;62.80
30371;DHT22;17164;48.590;11.410;2023-05-20T15:15:00;25.90;62.20
30371;DHT22;17164;48.590;11.410;2023-05-20T15:17:25;25.70;62.00
30371;DHT22;17164;48.590;11.410;2023-05-20T15:19:51;25.60;63.00
30371;DHT22;17164;48.590;11.410;2023-05-20T15:22:17;25.40;61.70
30371;DHT22;17164;48.590;11.410;2023-05-20T15:24:42;25.30;61.50